Time;durP1;ratioP1;P1;durP2;ratioP2;P2;SDS_P1;SDS_P2;PMS_P1;PMS_P2;Temp;Humidity;BMP_temperature;BMP_pressure;BME280_temperature;BME280_humidity;BME280_pressure;Samples;Min_cycle;Max_cycle;Signal;HPM_P1;HPM_P2
2023/08/09 00:02:03;;;;;;;3.07;1.93;;;13.60;99.90;;;;;;5035838;28;20470;-69
2023/08/09 00:04:31;;;;;;;4.90;2.13;;;13.60;99.90;;;;;;5035960;28;20451;-69
2023/08/09 00:06:59;;;;;;;7.27;2.33;;;13.60;99.90;;;;;;5035975;28;20447;-69
2023/08/09 00:09:28;;;;;;;3.47;2.20;;;13.60;99.90;;;;;;5035834;28;20435;-69
2023/08/09 00:11:56;;;;;;;4.17;2.80;;;13.60;99.90;;;;;;5034110;28;20478;-69
2023/08/09 00:14:26;;;;;;;3.30;2.33;;;13.60;99.90;;;;;;5035553;28;20486;-69
2023/08/09 00:16:54;;;;;;;5.07;2.97;;;13.50;99.90;;;;;;5035490;28;20439;-69
2023/08/09 00:19:23;;;;;;;4.80;2.67;;;13.50;99.90;;;;;;5036045;28;20779;-69
2023/08/09 00:21:51;;;;;;;5.40;3.00;;;13.50;99.90;;;;;;5034239;28;20936;-69
2023/08/09 00:24:19;;;;;;;7.73;2.70;;;13.50;99.90;;;;;;5035861;28;20451;-70
2023/08/09 00:26:47;;;;;;;5.67;2.90;;;13.40;99.90;;;;;;5035363;28;20486;-69
2023/08/09 00:29:15;;;;;;;4.80;3.10;;;13.40;99.90;;;;;;5035538;28;20446;-69
2023/08/09 00:31:44;;;;;;;5.87;2.70;;;13.40;99.90;;;;;;5034131;28;20493;-68
2023/08/09 00:34:13;;;;;;;4.70;3.10;;;13.40;99.90;;;;;;5033807;28;20490;-69
2023/08/09 00:36:41;;;;;;;5.10;3.60;;;13.40;99.90;;;;;;5035180;28;20482;-69
2023/08/09 00:39:09;;;;;;;4.40;3.77;;;13.40;99.90;;;;;;5033913;28;20483;-69
2023/08/09 00:41:37;;;;;;;3.80;2.93;;;13.40;99.90;;;;;;5033938;28;20443;-69
2023/08/09 00:44:06;;;;;;;4.23;3.37;;;13.40;99.90;;;;;;5033977;28;20501;-69
2023/08/09 00:46:38;;;;;;;6.10;3.53;;;13.40;99.90;;;;;;5033918;28;20451;-69
2023/08/09 00:49:08;;;;;;;5.03;3.40;;;13.40;99.90;;;;;;5032814;28;20443;-69
2023/08/09 00:51:36;;;;;;;5.10;3.83;;;13.40;99.90;;;;;;5035378;28;20493;-69
2023/08/09 00:54:05;;;;;;;4.57;3.73;;;13.40;99.90;;;;;;5034994;28;20903;-69
2023/08/09 00:56:34;;;;;;;5.73;4.33;;;13.30;99.90;;;;;;5035141;28;20492;-69
2023/08/09 00:59:04;;;;;;;4.73;4.03;;;13.30;99.90;;;;;;5034008;28;20450;-70
2023/08/09 01:01:32;;;;;;;4.77;3.87;;;13.30;99.90;;;;;;5033455;28;20866;-69
2023/08/09 01:04:01;;;;;;;5.77;4.23;;;13.30;99.90;;;;;;5034721;28;20473;-69
2023/08/09 01:06:38;;;;;;;5.17;4.33;;;13.30;99.90;;;;;;5033378;28;20533;-69
2023/08/09 01:09:15;;;;;;;4.40;3.90;;;13.30;99.90;;;;;;5034582;28;20454;-69
2023/08/09 01:11:49;;;;;;;4.60;4.20;;;13.30;99.90;;;;;;5034627;28;20549;-69
2023/08/09 01:14:19;;;;;;;5.50;4.27;;;13.30;99.90;;;;;;5034831;28;20896;-69
2023/08/09 01:16:48;;;;;;;5.80;4.70;;;13.30;99.90;;;;;;5035125;28;20431;-69
2023/08/09 01:19:32;;;;;;;5.97;4.60;;;13.30;99.90;;;;;;5034355;28;20475;-69
2023/08/09 01:22:07;;;;;;;7.77;4.50;;;13.30;99.90;;;;;;5033151;28;20823;-69
2023/08/09 01:24:37;;;;;;;8.63;4.70;;;13.20;99.90;;;;;;5032941;28;20466;-69
2023/08/09 01:27:05;;;;;;;8.17;4.80;;;13.30;99.90;;;;;;5034358;28;20845;-69
2023/08/09 01:29:33;;;;;;;6.43;4.80;;;13.20;99.90;;;;;;5032742;28;20481;-70
2023/08/09 01:32:02;;;;;;;8.60;5.27;;;13.20;99.90;;;;;;5032827;28;20957;-69
2023/08/09 01:34:33;;;;;;;6.70;5.27;;;13.20;99.90;;;;;;5032709;28;20479;-69
2023/08/09 01:37:19;;;;;;;6.93;5.70;;;13.20;99.90;;;;;;5034152;28;20439;-69
2023/08/09 01:39:52;;;;;;;5.63;4.97;;;13.20;99.90;;;;;;5032743;28;20538;-69
2023/08/09 01:42:21;;;;;;;6.50;5.90;;;13.20;99.90;;;;;;5033390;28;20550;-69
2023/08/09 01:44:53;;;;;;;6.13;5.63;;;13.20;99.90;;;;;;5032703;28;20530;-69
2023/08/09 01:47:22;;;;;;;7.10;6.40;;;13.20;99.90;;;;;;5032535;28;20439;-69
2023/08/09 01:49:51;;;;;;;8.10;6.30;;;13.20;99.90;;;;;;5034183;28;20439;-69
2023/08/09 01:52:19;;;;;;;7.37;6.57;;;13.20;99.90;;;;;;5033978;28;20435;-69
2023/08/09 01:54:49;;;;;;;8.10;7.30;;;13.20;99.90;;;;;;5032847;28;20910;-69
2023/08/09 01:57:17;;;;;;;7.37;6.67;;;13.20;99.90;;;;;;5032426;28;20998;-69
2023/08/09 01:59:45;;;;;;;8.17;7.30;;;13.20;99.90;;;;;;5033109;28;20554;-69
2023/08/09 02:02:14;;;;;;;8.10;7.40;;;13.20;99.90;;;;;;5032355;28;20450;-69
2023/08/09 02:04:42;;;;;;;8.93;8.03;;;13.20;99.90;;;;;;5033446;28;20455;-69
2023/08/09 02:07:11;;;;;;;9.37;8.43;;;13.20;99.90;;;;;;5034161;28;20799;-69
2023/08/09 02:09:39;;;;;;;8.50;7.70;;;13.20;99.90;;;;;;5033580;28;20782;-70
2023/08/09 02:12:09;;;;;;;7.60;7.00;;;13.20;99.90;;;;;;5032147;28;20830;-70
2023/08/09 02:14:37;;;;;;;10.17;9.07;;;13.20;99.90;;;;;;5032040;28;20493;-70
2023/08/09 02:17:05;;;;;;;11.03;9.03;;;13.20;99.90;;;;;;5032141;28;20483;-69
2023/08/09 02:19:33;;;;;;;9.80;7.87;;;13.20;99.90;;;;;;5033301;28;20537;-70
2023/08/09 02:22:02;;;;;;;9.43;8.57;;;13.20;99.90;;;;;;5033551;28;20467;-70
2023/08/09 02:24:31;;;;;;;10.40;9.13;;;13.20;99.90;;;;;;5031918;28;20853;-69
2023/08/09 02:26:59;;;;;;;10.30;9.40;;;13.20;99.90;;;;;;5033303;28;20430;-69
2023/08/09 02:29:30;;;;;;;9.23;8.33;;;13.20;99.90;;;;;;5032045;28;20474;-69
2023/08/09 02:31:59;;;;;;;9.97;9.07;;;13.20;99.90;;;;;;5032023;28;20456;-69
2023/08/09 02:34:28;;;;;;;11.07;9.50;;;13.10;99.90;;;;;;5031799;28;20498;-69
2023/08/09 02:36:56;;;;;;;12.13;8.67;;;13.20;99.90;;;;;;5033184;28;20474;-69
2023/08/09 02:39:25;;;;;;;9.20;8.30;;;13.20;99.90;;;;;;5033520;28;20443;-69
2023/08/09 02:41:53;;;;;;;9.90;8.57;;;13.20;99.90;;;;;;5031852;28;20438;-70
2023/08/09 02:44:21;;;;;;;10.23;9.20;;;13.20;99.90;;;;;;5033074;28;20554;-69
2023/08/09 02:46:51;;;;;;;9.30;8.40;;;13.20;99.90;;;;;;5031877;28;20479;-70
2023/08/09 02:49:19;;;;;;;10.10;9.10;;;13.20;99.90;;;;;;5031825;28;20451;-70
2023/08/09 02:51:47;;;;;;;9.93;8.93;;;13.10;99.90;;;;;;5031793;28;20988;-69
2023/08/09 02:54:16;;;;;;;9.73;8.73;;;13.10;99.90;;;;;;5031730;28;20821;-69
2023/08/09 02:56:44;;;;;;;8.97;8.07;;;13.10;99.90;;;;;;5033528;28;20431;-69
2023/08/09 02:59:12;;;;;;;9.30;8.50;;;13.10;99.90;;;;;;5032981;28;20435;-69
2023/08/09 03:01:41;;;;;;;9.90;8.70;;;13.10;99.90;;;;;;5033136;28;20481;-69
2023/08/09 03:04:10;;;;;;;10.27;9.27;;;13.10;99.90;;;;;;5031582;28;20459;-69
2023/08/09 03:06:39;;;;;;;12.27;9.53;;;13.10;99.90;;;;;;5031671;28;20493;-69
2023/08/09 03:09:08;;;;;;;10.13;9.13;;;13.10;99.90;;;;;;5031798;28;20451;-69
2023/08/09 03:11:36;;;;;;;9.90;9.00;;;13.10;99.90;;;;;;5032055;28;20462;-70
2023/08/09 03:14:04;;;;;;;10.97;9.93;;;13.10;99.90;;;;;;5035343;28;20561;-69
2023/08/09 03:16:32;;;;;;;10.00;9.17;;;13.10;99.90;;;;;;5036746;28;20788;-69
2023/08/09 03:19:01;;;;;;;10.40;9.40;;;13.10;99.90;;;;;;5035388;28;20447;-69
2023/08/09 03:21:30;;;;;;;9.40;8.60;;;13.10;99.90;;;;;;5035318;28;20439;-69
2023/08/09 03:23:58;;;;;;;10.53;9.60;;;13.10;99.90;;;;;;5036372;28;20455;-70
2023/08/09 03:26:27;;;;;;;10.00;9.10;;;13.10;99.90;;;;;;5035298;28;20444;-69
2023/08/09 03:28:55;;;;;;;11.87;10.50;;;13.10;99.90;;;;;;5036494;28;20443;-69
2023/08/09 03:31:23;;;;;;;10.87;9.77;;;13.10;99.90;;;;;;5036528;28;20928;-69
2023/08/09 03:33:53;;;;;;;10.27;9.27;;;13.00;99.90;;;;;;5035048;28;20478;-69
2023/08/09 03:36:21;;;;;;;11.50;10.30;;;13.00;99.90;;;;;;5036615;28;20443;-69
2023/08/09 03:38:51;;;;;;;11.17;10.27;;;13.00;99.90;;;;;;5035096;28;20451;-69
2023/08/09 03:41:19;;;;;;;10.10;9.20;;;13.10;99.90;;;;;;5034960;28;20447;-69
2023/08/09 03:43:47;;;;;;;10.50;9.50;;;13.00;99.90;;;;;;5034799;28;20477;-69
2023/08/09 03:46:16;;;;;;;10.73;9.73;;;13.00;99.90;;;;;;5034894;28;20534;-69
2023/08/09 03:48:44;;;;;;;11.53;10.47;;;13.00;99.90;;;;;;5036200;28;20479;-69
2023/08/09 03:51:12;;;;;;;10.73;9.73;;;13.00;99.90;;;;;;5034775;28;20435;-69
2023/08/09 03:53:40;;;;;;;11.47;10.47;;;13.00;99.90;;;;;;5036068;28;20465;-69
2023/08/09 03:56:10;;;;;;;11.40;10.17;;;13.00;99.90;;;;;;5034588;28;20502;-69
2023/08/09 03:58:39;;;;;;;11.97;10.80;;;13.00;99.90;;;;;;5036594;28;20853;-70
2023/08/09 04:01:07;;;;;;;12.10;11.00;;;13.00;99.90;;;;;;5036082;28;20447;-69
2023/08/09 04:03:36;;;;;;;11.23;10.10;;;13.00;99.90;;;;;;5034510;28;20980;-69
2023/08/09 04:06:05;;;;;;;10.77;9.77;;;13.00;99.90;;;;;;5034538;28;20857;-69
2023/08/09 04:08:34;;;;;;;12.50;10.47;;;13.00;99.90;;;;;;5036034;28;20438;-69
2023/08/09 04:11:04;;;;;;;13.30;11.47;;;13.00;99.90;;;;;;5034304;28;20451;-69
2023/08/09 04:13:33;;;;;;;11.50;10.53;;;13.00;99.90;;;;;;5036158;28;20987;-69
2023/08/09 04:16:01;;;;;;;12.53;10.80;;;13.00;99.90;;;;;;5035465;28;20463;-69
2023/08/09 04:18:29;;;;;;;13.37;12.07;;;13.00;99.90;;;;;;5035490;28;20435;-70
2023/08/09 04:20:57;;;;;;;11.03;9.93;;;12.90;99.90;;;;;;5034174;28;20458;-69
2023/08/09 04:23:26;;;;;;;11.80;10.60;;;12.90;99.90;;;;;;5034128;28;20467;-69
2023/08/09 04:25:54;;;;;;;10.80;9.90;;;12.90;99.90;;;;;;5035470;28;20534;-69
2023/08/09 04:28:22;;;;;;;11.63;10.33;;;12.90;99.90;;;;;;5035494;28;20479;-69
2023/08/09 04:30:52;;;;;;;10.43;9.53;;;12.90;99.90;;;;;;5035599;28;20530;-69
2023/08/09 04:33:21;;;;;;;10.90;9.93;;;13.00;99.90;;;;;;5035895;28;20517;-69
2023/08/09 04:35:49;;;;;;;11.23;10.13;;;13.00;99.90;;;;;;5035148;28;20463;-69
2023/08/09 04:38:17;;;;;;;10.73;9.73;;;13.00;99.90;;;;;;5035218;28;20924;-69
2023/08/09 04:40:45;;;;;;;10.57;9.67;;;13.00;99.90;;;;;;5035365;28;20439;-69
2023/08/09 04:43:13;;;;;;;10.60;9.70;;;13.00;99.90;;;;;;5033836;28;20518;-70
2023/08/09 04:45:42;;;;;;;10.30;9.30;;;13.00;99.90;;;;;;5035172;28;20436;-69
2023/08/09 04:48:17;;;;;;;10.20;9.33;;;13.00;99.90;;;;;;5033813;28;20534;-69
2023/08/09 04:50:46;;;;;;;10.83;9.93;;;13.00;99.90;;;;;;5035126;28;20434;-69
2023/08/09 04:53:14;;;;;;;10.67;9.73;;;13.00;99.90;;;;;;5035011;28;20484;-69
2023/08/09 04:55:43;;;;;;;9.93;9.03;;;13.00;99.90;;;;;;5034839;28;20471;-69
2023/08/09 04:58:11;;;;;;;11.17;9.87;;;13.00;99.90;;;;;;5034808;28;20493;-69
2023/08/09 05:00:39;;;;;;;10.37;9.37;;;13.00;99.90;;;;;;5034853;28;20525;-69
2023/08/09 05:03:07;;;;;;;10.17;9.27;;;13.00;99.90;;;;;;5035160;28;20494;-69
2023/08/09 05:05:37;;;;;;;9.70;8.80;;;13.00;99.90;;;;;;5035088;28;20538;-70
2023/08/09 05:08:05;;;;;;;11.13;10.03;;;13.00;99.90;;;;;;5033364;28;21026;-69
2023/08/09 05:10:35;;;;;;;9.60;8.50;;;13.10;99.90;;;;;;5034991;28;20435;-69
2023/08/09 05:13:04;;;;;;;10.10;8.97;;;13.10;99.90;;;;;;5034484;28;20463;-69
2023/08/09 05:15:32;;;;;;;9.17;8.37;;;13.10;99.90;;;;;;5034474;28;20561;-69
2023/08/09 05:18:00;;;;;;;9.03;8.20;;;13.10;99.90;;;;;;5034805;28;20995;-69
2023/08/09 05:20:28;;;;;;;9.57;8.57;;;13.10;99.90;;;;;;5034417;28;20435;-69
2023/08/09 05:22:58;;;;;;;10.33;9.23;;;13.10;99.90;;;;;;5033171;28;20847;-69
2023/08/09 05:25:26;;;;;;;8.60;7.80;;;13.20;99.90;;;;;;5033188;28;20486;-69
2023/08/09 05:27:55;;;;;;;9.07;8.20;;;13.20;99.90;;;;;;5034478;28;20445;-69
2023/08/09 05:30:24;;;;;;;9.13;8.30;;;13.20;99.90;;;;;;5033118;28;20447;-70
2023/08/09 05:32:52;;;;;;;11.80;8.13;;;13.20;99.90;;;;;;5034700;28;20455;-69
2023/08/09 05:35:20;;;;;;;8.77;7.87;;;13.30;99.90;;;;;;5033697;28;20477;-69
2023/08/09 05:37:48;;;;;;;8.10;7.40;;;13.30;99.90;;;;;;5034248;28;20534;-69
2023/08/09 05:40:17;;;;;;;8.23;7.23;;;13.30;99.90;;;;;;5034376;28;20443;-69
2023/08/09 05:42:46;;;;;;;8.17;7.50;;;13.30;99.90;;;;;;5034151;28;20459;-69
2023/08/09 05:45:14;;;;;;;10.50;8.20;;;13.40;99.90;;;;;;5034612;28;20439;-69
2023/08/09 05:47:42;;;;;;;10.33;7.80;;;13.40;99.90;;;;;;5034048;28;20816;-69
2023/08/09 05:50:10;;;;;;;7.87;7.07;;;13.50;99.90;;;;;;5033041;28;20447;-69
2023/08/09 05:52:39;;;;;;;8.67;7.60;;;13.50;99.90;;;;;;5034052;28;20471;-69
2023/08/09 05:55:08;;;;;;;9.20;8.30;;;13.50;99.90;;;;;;5034190;28;20449;-69
2023/08/09 05:57:37;;;;;;;9.20;7.33;;;13.60;99.90;;;;;;5032952;28;20473;-69
2023/08/09 06:00:11;;;;;;;8.37;6.90;;;13.70;99.90;;;;;;5032753;28;20530;-69
2023/08/09 06:02:39;;;;;;;7.43;6.83;;;13.70;99.90;;;;;;5034612;28;20462;-69
2023/08/09 06:05:09;;;;;;;7.40;6.53;;;13.90;99.90;;;;;;5034123;28;20940;-69
2023/08/09 06:07:37;;;;;;;6.77;6.17;;;14.00;99.90;;;;;;5034019;28;20435;-69
2023/08/09 06:10:06;;;;;;;7.00;6.30;;;14.20;99.90;;;;;;5034162;28;20447;-69
2023/08/09 06:12:34;;;;;;;7.07;6.33;;;14.40;99.90;;;;;;5033010;28;20482;-69
2023/08/09 06:15:04;;;;;;;8.00;6.37;;;14.50;99.90;;;;;;5031616;28;20455;-69
2023/08/09 06:17:32;;;;;;;6.60;5.83;;;14.70;99.90;;;;;;5033419;28;20439;-69
2023/08/09 06:20:01;;;;;;;7.03;5.37;;;14.90;99.90;;;;;;5033037;28;20967;-69
2023/08/09 06:22:29;;;;;;;6.57;5.03;;;15.10;99.90;;;;;;5032786;28;20442;-69
2023/08/09 06:24:57;;;;;;;6.77;5.33;;;15.20;99.90;;;;;;5032854;28;20521;-69
2023/08/09 06:27:25;;;;;;;6.70;4.77;;;15.30;99.90;;;;;;5031511;28;20447;-69
2023/08/09 06:29:53;;;;;;;6.83;5.07;;;15.50;99.90;;;;;;5032961;28;20526;-69
2023/08/09 06:32:23;;;;;;;5.17;4.60;;;15.60;99.90;;;;;;5031437;28;20422;-69
2023/08/09 06:34:51;;;;;;;5.20;3.87;;;15.70;99.90;;;;;;5032575;28;20962;-69
2023/08/09 06:37:19;;;;;;;7.03;4.73;;;15.90;99.90;;;;;;5032754;28;20983;-69
2023/08/09 06:39:48;;;;;;;6.60;4.10;;;16.00;99.90;;;;;;5032739;28;20492;-69
2023/08/09 06:42:17;;;;;;;4.40;4.00;;;16.20;99.90;;;;;;5031167;28;20455;-69
2023/08/09 06:44:49;;;;;;;5.13;4.27;;;16.30;99.90;;;;;;5031494;28;20952;-69
2023/08/09 06:47:17;;;;;;;6.60;4.20;;;16.40;99.90;;;;;;5034099;28;20876;-69
2023/08/09 06:49:47;;;;;;;4.30;3.23;;;16.50;99.90;;;;;;5035942;28;20466;-69
2023/08/09 06:52:15;;;;;;;4.10;3.53;;;16.60;99.90;;;;;;5036401;28;20471;-69
2023/08/09 06:54:43;;;;;;;4.27;3.13;;;16.70;99.90;;;;;;5035820;28;20439;-69
2023/08/09 06:57:14;;;;;;;6.83;3.17;;;16.80;99.90;;;;;;5034658;28;20466;-69
2023/08/09 06:59:42;;;;;;;4.30;3.47;;;16.90;99.90;;;;;;5036749;28;20462;-69
2023/08/09 07:02:10;;;;;;;3.13;2.83;;;17.00;99.90;;;;;;5036750;28;20529;-70
2023/08/09 07:04:38;;;;;;;6.10;3.40;;;17.10;99.90;;;;;;5035932;28;20533;-69
2023/08/09 07:07:08;;;;;;;5.00;3.00;;;17.10;99.90;;;;;;5036366;28;20522;-69
2023/08/09 07:09:36;;;;;;;6.00;2.97;;;17.20;99.90;;;;;;5035904;28;20431;-70
2023/08/09 07:12:05;;;;;;;5.00;3.47;;;17.30;99.90;;;;;;4997374;28;1123812;-69
2023/08/09 07:14:33;;;;;;;4.80;2.80;;;17.30;99.90;;;;;;5036920;28;20208;-70
2023/08/09 07:17:01;;;;;;;4.30;3.40;;;17.30;99.90;;;;;;5037156;28;20947;-69
2023/08/09 07:19:30;;;;;;;6.37;3.27;;;17.40;99.90;;;;;;5036919;28;20431;-69
2023/08/09 07:21:58;;;;;;;3.70;2.50;;;17.40;99.90;;;;;;5037026;28;20911;-69
2023/08/09 07:24:28;;;;;;;5.53;2.40;;;17.50;99.90;;;;;;5035718;28;20449;-69
2023/08/09 07:26:56;;;;;;;6.43;2.30;;;17.60;99.90;;;;;;5036939;28;20466;-70
2023/08/09 07:29:24;;;;;;;4.90;2.40;;;17.70;99.90;;;;;;5037085;28;20770;-69
2023/08/09 07:31:52;;;;;;;3.83;2.80;;;17.70;99.90;;;;;;5037244;28;20851;-69
2023/08/09 07:34:20;;;;;;;3.50;2.60;;;17.80;99.90;;;;;;5036741;28;20433;-69
2023/08/09 07:36:48;;;;;;;6.00;2.60;;;17.80;99.90;;;;;;5036853;28;20524;-69
2023/08/09 07:39:17;;;;;;;4.20;2.50;;;17.80;99.90;;;;;;5035499;28;20508;-70
2023/08/09 07:41:46;;;;;;;4.80;2.20;;;17.80;99.90;;;;;;5037336;28;20471;-69
2023/08/09 07:44:14;;;;;;;2.83;1.70;;;17.80;99.90;;;;;;5036911;28;20536;-70
2023/08/09 07:46:42;;;;;;;3.90;2.10;;;17.80;99.90;;;;;;5037020;28;20526;-69
2023/08/09 07:49:10;;;;;;;6.40;2.80;;;17.80;99.90;;;;;;5035732;28;20969;-70
2023/08/09 07:51:38;;;;;;;3.70;1.80;;;17.80;99.90;;;;;;5036803;28;20470;-70
2023/08/09 07:54:07;;;;;;;5.07;2.30;;;17.70;99.90;;;;;;5036818;28;20429;-70
2023/08/09 07:56:35;;;;;;;4.40;1.90;;;17.70;99.90;;;;;;5036917;28;20445;-70
2023/08/09 07:59:05;;;;;;;4.00;2.00;;;17.60;99.90;;;;;;5036630;28;20489;-70
2023/08/09 08:01:33;;;;;;;2.33;1.50;;;17.60;99.90;;;;;;5036921;28;20421;-70
2023/08/09 08:04:01;;;;;;;5.37;2.27;;;17.60;99.90;;;;;;5036573;28;20500;-69
2023/08/09 08:06:29;;;;;;;3.37;1.80;;;17.60;99.90;;;;;;5036735;28;20921;-70
2023/08/09 08:08:57;;;;;;;5.40;2.20;;;17.60;99.90;;;;;;5036579;28;20962;-70
2023/08/09 08:11:26;;;;;;;4.53;2.20;;;17.70;99.90;;;;;;5036119;28;20977;-69
2023/08/09 08:13:54;;;;;;;4.80;2.07;;;17.70;99.90;;;;;;5036855;28;20947;-70
2023/08/09 08:16:24;;;;;;;4.00;1.70;;;17.70;99.90;;;;;;5036559;28;20413;-70
2023/08/09 08:18:52;;;;;;;4.83;1.93;;;17.80;99.90;;;;;;5034842;28;20435;-70
2023/08/09 08:21:20;;;;;;;3.60;1.87;;;17.90;99.90;;;;;;5034640;28;20785;-69
2023/08/09 08:23:48;;;;;;;2.47;1.60;;;18.00;99.90;;;;;;5035830;28;20570;-70
2023/08/09 08:26:18;;;;;;;3.83;1.77;;;18.10;99.90;;;;;;5036080;28;20452;-70
2023/08/09 08:28:46;;;;;;;4.90;1.97;;;18.10;99.90;;;;;;5035867;28;20903;-70
2023/08/09 08:31:19;;;;;;;4.13;1.90;;;18.20;99.90;;;;;;5036144;28;20414;-70
2023/08/09 08:33:51;;;;;;;2.63;1.40;;;18.30;99.90;;;;;;5035972;28;20451;-69
2023/08/09 08:36:19;;;;;;;3.13;1.50;;;18.30;99.90;;;;;;5036868;28;20423;-69
2023/08/09 08:38:58;;;;;;;2.00;1.40;;;18.40;99.90;;;;;;5035721;28;20436;-70
2023/08/09 08:41:27;;;;;;;3.87;1.77;;;18.50;99.90;;;;;;5034308;28;20462;-69
2023/08/09 08:43:55;;;;;;;3.97;1.40;;;18.50;99.90;;;;;;5035602;28;20508;-70
2023/08/09 08:46:27;;;;;;;2.13;1.50;;;18.50;99.90;;;;;;5035828;28;20512;-70
2023/08/09 08:49:01;;;;;;;3.43;1.57;;;18.60;99.90;;;;;;5036078;28;20946;-70
2023/08/09 08:51:30;;;;;;;4.00;1.60;;;18.60;99.90;;;;;;5035615;28;20390;-70
2023/08/09 08:53:59;;;;;;;6.10;1.83;;;18.70;99.90;;;;;;5035645;28;20436;-70
2023/08/09 08:56:28;;;;;;;4.27;1.77;;;18.80;99.90;;;;;;5033958;28;20447;-70
2023/08/09 08:58:57;;;;;;;3.73;1.83;;;18.80;99.90;;;;;;5036097;28;20901;-70
2023/08/09 09:01:26;;;;;;;4.27;1.50;;;18.80;99.90;;;;;;5036138;28;20526;-70
2023/08/09 09:03:55;;;;;;;6.30;1.50;;;18.90;99.90;;;;;;5035871;28;20429;-70
2023/08/09 09:06:24;;;;;;;3.40;1.43;;;18.90;99.90;;;;;;5036212;28;20629;-70
2023/08/09 09:08:55;;;;;;;3.27;1.57;;;18.90;99.90;;;;;;5035450;28;20434;-70
2023/08/09 09:11:24;;;;;;;3.43;1.70;;;18.90;99.90;;;;;;5034304;28;20434;-70
2023/08/09 09:13:52;;;;;;;3.07;1.40;;;18.90;99.90;;;;;;5034547;28;20528;-70
2023/08/09 09:16:22;;;;;;;2.03;1.53;;;18.90;99.90;;;;;;5035571;28;20479;-69
2023/08/09 09:18:50;;;;;;;7.90;1.63;;;18.90;99.90;;;;;;5035734;28;20469;-70
2023/08/09 09:21:20;;;;;;;3.30;1.43;;;19.00;99.90;;;;;;5035637;28;20433;-70
2023/08/09 09:23:48;;;;;;;2.83;1.43;;;19.10;99.90;;;;;;5035286;28;20459;-70
2023/08/09 09:26:18;;;;;;;2.70;1.23;;;19.20;99.90;;;;;;5035577;28;20529;-70
2023/08/09 09:28:47;;;;;;;2.90;1.23;;;19.20;99.90;;;;;;5035039;28;20446;-70
2023/08/09 09:31:18;;;;;;;3.30;1.50;;;19.20;99.90;;;;;;5035937;28;20510;-70
2023/08/09 09:33:49;;;;;;;5.70;1.77;;;19.30;99.90;;;;;;5035418;28;20840;-70
2023/08/09 09:36:17;;;;;;;4.03;1.27;;;19.40;99.90;;;;;;5034240;28;20451;-70
2023/08/09 09:38:53;;;;;;;2.73;1.50;;;19.50;99.90;;;;;;5035952;28;20466;-70
2023/08/09 09:41:21;;;;;;;1.50;1.10;;;19.60;99.90;;;;;;5035504;28;20419;-70
2023/08/09 09:43:51;;;;;;;2.70;1.30;;;19.60;99.90;;;;;;5035471;28;20466;-70
2023/08/09 09:46:20;;;;;;;2.80;1.37;;;19.70;99.90;;;;;;5035505;28;20441;-70
2023/08/09 09:49:05;;;;;;;3.20;1.30;;;19.70;99.90;;;;;;5035224;28;20419;-70
2023/08/09 09:51:34;;;;;;;2.90;1.50;;;19.70;99.90;;;;;;5034808;28;20525;-70
2023/08/09 09:54:06;;;;;;;3.13;1.30;;;19.60;99.90;;;;;;5034810;28;20553;-70
2023/08/09 09:56:35;;;;;;;3.77;1.10;;;19.60;99.90;;;;;;5035713;28;20488;-70
2023/08/09 09:59:04;;;;;;;1.50;1.03;;;19.60;99.90;;;;;;5033337;28;20461;-70
2023/08/09 10:01:36;;;;;;;3.20;1.23;;;19.60;99.90;;;;;;5034975;28;20470;-70
2023/08/09 10:04:07;;;;;;;3.00;1.40;;;19.60;99.90;;;;;;5035044;28;20486;-70
2023/08/09 10:06:39;;;;;;;2.87;1.23;;;19.50;99.90;;;;;;5034600;28;20431;-70
2023/08/09 10:09:10;;;;;;;4.10;1.47;;;19.50;99.90;;;;;;5034272;28;20818;-70
2023/08/09 10:11:40;;;;;;;3.30;1.30;;;19.60;99.90;;;;;;5033885;28;20450;-71
2023/08/09 10:14:10;;;;;;;3.47;1.17;;;19.60;99.90;;;;;;5032250;28;20927;-70
2023/08/09 10:16:39;;;;;;;2.50;1.50;;;19.80;99.90;;;;;;5033487;28;20457;-70
2023/08/09 10:19:15;;;;;;;3.43;1.10;;;19.90;99.90;;;;;;5033964;28;20900;-70
2023/08/09 10:21:43;;;;;;;2.77;1.37;;;19.90;99.90;;;;;;5032172;28;20984;-70
2023/08/09 10:24:13;;;;;;;2.43;1.27;;;20.00;99.90;;;;;;5032245;28;20489;-70
2023/08/09 10:26:44;;;;;;;9.73;1.50;;;20.00;99.90;;;;;;5033446;28;20434;-70
2023/08/09 10:29:13;;;;;;;2.03;1.40;;;20.00;99.90;;;;;;5033983;28;20450;-71
2023/08/09 10:31:48;;;;;;;4.43;1.30;;;20.00;99.90;;;;;;5033734;28;20456;-70
2023/08/09 10:34:18;;;;;;;3.03;1.43;;;20.00;99.90;;;;;;5032010;28;20471;-71
2023/08/09 10:36:50;;;;;;;3.50;1.33;;;20.00;99.90;;;;;;5032162;28;20485;-71
2023/08/09 10:39:21;;;;;;;2.13;1.30;;;20.00;99.90;;;;;;5033566;28;20458;-70
2023/08/09 10:41:58;;;;;;;3.53;1.70;;;20.00;99.90;;;;;;5033341;28;20419;-71
2023/08/09 10:44:38;;;;;;;3.57;1.33;;;20.10;99.90;;;;;;5033541;28;21029;-71
2023/08/09 10:47:07;;;;;;;3.10;1.50;;;20.00;99.90;;;;;;5032132;28;20848;-71
2023/08/09 10:49:45;;;;;;;4.17;1.87;;;20.00;99.90;;;;;;5033114;28;20435;-70
2023/08/09 10:52:14;;;;;;;2.47;1.77;;;20.00;99.90;;;;;;5033150;28;20427;-71
2023/08/09 10:55:05;;;;;;;1.83;1.20;;;20.10;99.90;;;;;;5033392;28;20481;-71
2023/08/09 10:57:42;;;;;;;2.20;1.27;;;20.10;99.90;;;;;;5033302;28;20765;-70
2023/08/09 11:00:12;;;;;;;5.27;1.47;;;20.10;99.90;;;;;;5033221;28;20431;-71
2023/08/09 11:02:45;;;;;;;2.60;1.40;;;20.10;99.90;;;;;;5033340;28;20513;-71
2023/08/09 11:05:14;;;;;;;3.40;1.60;;;20.10;99.90;;;;;;5033098;28;20416;-70
2023/08/09 11:07:43;;;;;;;3.40;1.23;;;20.00;99.90;;;;;;5033069;28;20435;-70
2023/08/09 11:10:13;;;;;;;5.47;1.60;;;20.00;99.90;;;;;;5033039;28;20442;-71
2023/08/09 11:12:45;;;;;;;2.07;1.30;;;20.00;99.90;;;;;;5032944;28;20478;-70
2023/08/09 11:15:13;;;;;;;2.37;1.10;;;20.00;99.90;;;;;;5031757;28;20445;-70
2023/08/09 11:17:48;;;;;;;3.13;1.50;;;20.00;99.90;;;;;;5033068;28;20828;-70
2023/08/09 11:20:19;;;;;;;2.20;1.30;;;20.00;99.90;;;;;;5033449;28;20530;-71
2023/08/09 11:22:54;;;;;;;2.73;1.50;;;20.00;99.90;;;;;;5033084;28;20897;-71
2023/08/09 11:25:24;;;;;;;2.60;1.53;;;20.00;99.90;;;;;;5032203;28;20548;-71
2023/08/09 11:27:53;;;;;;;2.30;1.20;;;20.10;99.90;;;;;;5033023;28;20419;-70
2023/08/09 11:30:22;;;;;;;3.53;1.40;;;20.20;99.90;;;;;;5031574;28;20454;-71
2023/08/09 11:32:56;;;;;;;1.50;1.00;;;20.20;99.90;;;;;;5033591;28;20455;-71
2023/08/09 11:35:33;;;;;;;2.30;1.10;;;20.30;99.90;;;;;;5036999;28;20426;-70
2023/08/09 11:38:01;;;;;;;2.40;1.50;;;20.30;99.90;;;;;;5036955;28;20410;-71
2023/08/09 11:40:43;;;;;;;3.10;1.30;;;20.20;99.90;;;;;;5035153;28;20439;-70
2023/08/09 11:43:13;;;;;;;4.47;1.90;;;20.20;99.90;;;;;;5036852;28;20454;-71
2023/08/09 11:45:52;;;;;;;3.43;1.30;;;20.10;99.90;;;;;;5036247;28;20441;-71
2023/08/09 11:48:30;;;;;;;1.97;1.37;;;20.10;99.90;;;;;;5036657;28;20426;-71
2023/08/09 11:51:12;;;;;;;1.90;0.97;;;20.10;99.90;;;;;;5036704;28;20423;-71
2023/08/09 11:53:41;;;;;;;5.80;1.83;;;20.10;99.90;;;;;;5036931;28;20944;-70
2023/08/09 11:56:16;;;;;;;2.70;1.60;;;20.10;99.90;;;;;;5036571;28;20471;-71
2023/08/09 11:58:45;;;;;;;3.00;1.30;;;20.20;99.90;;;;;;5036203;28;20525;-71
2023/08/09 12:01:15;;;;;;;2.87;1.40;;;20.30;99.90;;;;;;5034827;28;20541;-70
2023/08/09 12:03:45;;;;;;;1.77;1.20;;;20.30;99.90;;;;;;5036284;28;20455;-70
2023/08/09 12:06:14;;;;;;;1.90;1.00;;;20.50;99.90;;;;;;5035995;28;20488;-70
2023/08/09 12:08:42;;;;;;;5.83;1.37;;;20.50;99.90;;;;;;5035959;28;20937;-70
2023/08/09 12:11:17;;;;;;;2.70;1.50;;;20.60;99.90;;;;;;5035783;28;20451;-71
2023/08/09 12:13:45;;;;;;;1.97;1.23;;;20.70;99.90;;;;;;5035736;28;20478;-71
2023/08/09 12:16:13;;;;;;;2.57;1.20;;;20.80;99.90;;;;;;5036273;28;20858;-71
2023/08/09 12:18:41;;;;;;;1.77;1.20;;;20.90;99.90;;;;;;5036243;28;20544;-71
2023/08/09 12:21:09;;;;;;;2.40;1.13;;;20.90;99.90;;;;;;5035854;28;20952;-71
2023/08/09 12:23:38;;;;;;;2.30;1.13;;;20.80;99.90;;;;;;5036111;28;20455;-71
2023/08/09 12:26:07;;;;;;;2.63;1.37;;;20.80;99.90;;;;;;5036149;28;20518;-71
2023/08/09 12:28:39;;;;;;;3.00;1.73;;;20.90;99.90;;;;;;5034607;28;20454;-70
2023/08/09 12:31:08;;;;;;;1.77;1.13;;;20.90;99.90;;;;;;5035738;28;20474;-71
2023/08/09 12:33:36;;;;;;;1.80;1.20;;;21.00;99.90;;;;;;5035422;28;20876;-70
2023/08/09 12:36:05;;;;;;;3.53;1.50;;;21.10;99.90;;;;;;5034398;28;20447;-71
2023/08/09 12:38:33;;;;;;;1.70;1.00;;;21.20;99.90;;;;;;5035548;28;20435;-72
2023/08/09 12:41:01;;;;;;;2.70;1.33;;;21.20;99.90;;;;;;5035643;28;20469;-71
2023/08/09 12:43:30;;;;;;;2.80;1.23;;;21.30;99.90;;;;;;5035368;28;20463;-71
2023/08/09 12:46:00;;;;;;;3.50;1.50;;;21.30;99.90;;;;;;5035047;28;20948;-71
2023/08/09 12:48:28;;;;;;;2.17;1.20;;;21.30;99.90;;;;;;5034197;28;21031;-71
2023/08/09 12:50:57;;;;;;;2.10;1.17;;;21.40;99.90;;;;;;5035160;28;20963;-71
2023/08/09 12:53:25;;;;;;;3.03;1.73;;;21.40;99.90;;;;;;5035273;28;20463;-71
2023/08/09 12:55:53;;;;;;;2.10;1.20;;;21.40;99.90;;;;;;5035404;28;20447;-71